sensor_id;sensor_type;location;lat;lon;timestamp;P1;durP1;ratioP1;P2;durP2;ratioP2
34353;SDS011;20618;0.000;0.000;2023-11-21T00:01:25;10.10;;;2.75;;
34353;SDS011;20618;0.000;0.000;2023-11-21T00:03:51;12.10;;;2.42;;
34353;SDS011;20618;0.000;0.000;2023-11-21T00:06:20;11.93;;;2.72;;
34353;SDS011;20618;0.000;0.000;2023-11-21T00:08:46;12.35;;;2.45;;
34353;SDS011;20618;0.000;0.000;2023-11-21T00:11:12;4.82;;;2.22;;
34353;SDS011;20618;0.000;0.000;2023-11-21T00:13:39;8.55;;;2.25;;
34353;SDS011;20618;0.000;0.000;2023-11-21T00:16:05;9.27;;;3.00;;
34353;SDS011;20618;0.000;0.000;2023-11-21T00:18:32;7.88;;;2.78;;
34353;SDS011;20618;0.000;0.000;2023-11-21T00:20:58;8.25;;;2.30;;
34353;SDS011;20618;0.000;0.000;2023-11-21T00:23:25;7.63;;;2.30;;
34353;SDS011;20618;0.000;0.000;2023-11-21T00:25:51;8.68;;;2.28;;
34353;SDS011;20618;0.000;0.000;2023-11-21T00:28:17;8.75;;;2.63;;
34353;SDS011;20618;0.000;0.000;2023-11-21T00:30:43;12.02;;;3.05;;
34353;SDS011;20618;0.000;0.000;2023-11-21T00:33:10;7.90;;;2.53;;
34353;SDS011;20618;0.000;0.000;2023-11-21T00:35:36;10.23;;;2.90;;
34353;SDS011;20618;0.000;0.000;2023-11-21T00:38:02;7.03;;;2.78;;
34353;SDS011;20618;0.000;0.000;2023-11-21T00:40:28;9.23;;;2.42;;
34353;SDS011;20618;0.000;0.000;2023-11-21T00:42:54;7.38;;;2.28;;
34353;SDS011;20618;0.000;0.000;2023-11-21T00:45:21;8.25;;;2.58;;
34353;SDS011;20618;0.000;0.000;2023-11-21T00:47:47;10.68;;;2.60;;
34353;SDS011;20618;0.000;0.000;2023-11-21T00:50:13;10.38;;;2.65;;
34353;SDS011;20618;0.000;0.000;2023-11-21T00:52:40;6.75;;;2.10;;
34353;SDS011;20618;0.000;0.000;2023-11-21T00:55:07;8.43;;;2.75;;
34353;SDS011;20618;0.000;0.000;2023-11-21T00:57:34;8.45;;;2.08;;
34353;SDS011;20618;0.000;0.000;2023-11-21T01:00:00;9.02;;;2.40;;
34353;SDS011;20618;0.000;0.000;2023-11-21T01:02:26;8.15;;;2.60;;
34353;SDS011;20618;0.000;0.000;2023-11-21T01:04:52;6.60;;;2.35;;
34353;SDS011;20618;0.000;0.000;2023-11-21T01:07:18;8.05;;;2.42;;
34353;SDS011;20618;0.000;0.000;2023-11-21T01:09:45;8.75;;;2.30;;
34353;SDS011;20618;0.000;0.000;2023-11-21T01:12:12;7.65;;;2.20;;
34353;SDS011;20618;0.000;0.000;2023-11-21T01:14:38;4.38;;;1.80;;
34353;SDS011;20618;0.000;0.000;2023-11-21T01:17:04;6.05;;;2.15;;
34353;SDS011;20618;0.000;0.000;2023-11-21T01:19:30;7.65;;;2.50;;
34353;SDS011;20618;0.000;0.000;2023-11-21T01:21:56;8.98;;;2.88;;
34353;SDS011;20618;0.000;0.000;2023-11-21T01:24:23;7.22;;;2.58;;
34353;SDS011;20618;0.000;0.000;2023-11-21T01:26:49;7.20;;;2.25;;
34353;SDS011;20618;0.000;0.000;2023-11-21T01:29:16;6.22;;;2.47;;
34353;SDS011;20618;0.000;0.000;2023-11-21T01:31:42;7.65;;;2.33;;
34353;SDS011;20618;0.000;0.000;2023-11-21T01:34:08;7.85;;;2.50;;
34353;SDS011;20618;0.000;0.000;2023-11-21T01:36:34;9.43;;;2.53;;
34353;SDS011;20618;0.000;0.000;2023-11-21T01:39:00;6.38;;;2.47;;
34353;SDS011;20618;0.000;0.000;2023-11-21T01:41:27;10.57;;;2.60;;
34353;SDS011;20618;0.000;0.000;2023-11-21T01:43:54;7.15;;;2.30;;
34353;SDS011;20618;0.000;0.000;2023-11-21T01:46:20;7.32;;;1.77;;
34353;SDS011;20618;0.000;0.000;2023-11-21T01:48:47;5.70;;;1.98;;
34353;SDS011;20618;0.000;0.000;2023-11-21T01:51:14;9.73;;;2.42;;
34353;SDS011;20618;0.000;0.000;2023-11-21T01:53:40;8.60;;;2.20;;
34353;SDS011;20618;0.000;0.000;2023-11-21T01:56:07;4.82;;;1.92;;
34353;SDS011;20618;0.000;0.000;2023-11-21T01:58:34;8.23;;;2.38;;
34353;SDS011;20618;0.000;0.000;2023-11-21T02:01:01;6.88;;;2.25;;
34353;SDS011;20618;0.000;0.000;2023-11-21T02:03:27;7.57;;;2.13;;
34353;SDS011;20618;0.000;0.000;2023-11-21T02:05:53;9.90;;;2.40;;
34353;SDS011;20618;0.000;0.000;2023-11-21T02:08:19;7.15;;;2.28;;
34353;SDS011;20618;0.000;0.000;2023-11-21T02:10:46;7.53;;;2.50;;
34353;SDS011;20618;0.000;0.000;2023-11-21T02:13:13;5.20;;;2.10;;
34353;SDS011;20618;0.000;0.000;2023-11-21T02:15:39;6.18;;;1.73;;
34353;SDS011;20618;0.000;0.000;2023-11-21T02:18:06;6.30;;;2.03;;
34353;SDS011;20618;0.000;0.000;2023-11-21T02:20:32;5.80;;;2.33;;
34353;SDS011;20618;0.000;0.000;2023-11-21T02:23:00;6.68;;;1.92;;
34353;SDS011;20618;0.000;0.000;2023-11-21T02:25:27;5.70;;;1.90;;
34353;SDS011;20618;0.000;0.000;2023-11-21T02:27:56;5.45;;;2.10;;
34353;SDS011;20618;0.000;0.000;2023-11-21T02:30:23;6.72;;;1.98;;
34353;SDS011;20618;0.000;0.000;2023-11-21T02:32:58;8.25;;;2.53;;
34353;SDS011;20618;0.000;0.000;2023-11-21T02:35:25;7.63;;;2.35;;
34353;SDS011;20618;0.000;0.000;2023-11-21T02:37:51;5.70;;;2.00;;
34353;SDS011;20618;0.000;0.000;2023-11-21T02:40:18;4.22;;;1.52;;
34353;SDS011;20618;0.000;0.000;2023-11-21T02:42:46;7.15;;;2.72;;
34353;SDS011;20618;0.000;0.000;2023-11-21T02:45:13;7.25;;;2.33;;
34353;SDS011;20618;0.000;0.000;2023-11-21T02:47:41;7.38;;;2.03;;
34353;SDS011;20618;0.000;0.000;2023-11-21T02:50:08;5.65;;;1.70;;
34353;SDS011;20618;0.000;0.000;2023-11-21T02:52:34;5.10;;;1.85;;
34353;SDS011;20618;0.000;0.000;2023-11-21T02:55:03;5.68;;;2.05;;
34353;SDS011;20618;0.000;0.000;2023-11-21T02:57:30;6.35;;;1.83;;
34353;SDS011;20618;0.000;0.000;2023-11-21T02:59:56;7.13;;;2.08;;
34353;SDS011;20618;0.000;0.000;2023-11-21T03:02:22;4.63;;;2.20;;
34353;SDS011;20618;0.000;0.000;2023-11-21T03:04:48;5.88;;;1.77;;
34353;SDS011;20618;0.000;0.000;2023-11-21T03:07:15;6.78;;;2.00;;
34353;SDS011;20618;0.000;0.000;2023-11-21T03:09:41;4.05;;;1.92;;
34353;SDS011;20618;0.000;0.000;2023-11-21T03:12:09;4.10;;;1.88;;
34353;SDS011;20618;0.000;0.000;2023-11-21T03:14:37;4.72;;;2.10;;
34353;SDS011;20618;0.000;0.000;2023-11-21T03:17:03;4.78;;;2.10;;
34353;SDS011;20618;0.000;0.000;2023-11-21T03:19:30;4.38;;;1.77;;
34353;SDS011;20618;0.000;0.000;2023-11-21T03:21:56;4.40;;;2.08;;
34353;SDS011;20618;0.000;0.000;2023-11-21T03:24:22;6.05;;;2.00;;
34353;SDS011;20618;0.000;0.000;2023-11-21T03:26:49;5.90;;;1.85;;
34353;SDS011;20618;0.000;0.000;2023-11-21T03:29:16;5.55;;;1.98;;
34353;SDS011;20618;0.000;0.000;2023-11-21T03:31:42;6.35;;;2.22;;
34353;SDS011;20618;0.000;0.000;2023-11-21T03:34:15;4.95;;;1.75;;
34353;SDS011;20618;0.000;0.000;2023-11-21T03:36:43;4.47;;;1.98;;
34353;SDS011;20618;0.000;0.000;2023-11-21T03:39:09;5.40;;;1.83;;
34353;SDS011;20618;0.000;0.000;2023-11-21T03:41:35;6.60;;;1.70;;
34353;SDS011;20618;0.000;0.000;2023-11-21T03:44:01;5.10;;;1.98;;
34353;SDS011;20618;0.000;0.000;2023-11-21T03:46:27;4.90;;;1.80;;
34353;SDS011;20618;0.000;0.000;2023-11-21T03:48:54;5.30;;;2.28;;
34353;SDS011;20618;0.000;0.000;2023-11-21T03:51:20;5.60;;;1.80;;
34353;SDS011;20618;0.000;0.000;2023-11-21T03:53:46;4.60;;;1.77;;
34353;SDS011;20618;0.000;0.000;2023-11-21T03:56:13;6.32;;;2.53;;
34353;SDS011;20618;0.000;0.000;2023-11-21T03:58:39;4.25;;;1.80;;
34353;SDS011;20618;0.000;0.000;2023-11-21T04:01:06;5.53;;;1.95;;
34353;SDS011;20618;0.000;0.000;2023-11-21T04:03:32;5.72;;;1.95;;
34353;SDS011;20618;0.000;0.000;2023-11-21T04:05:58;4.20;;;1.77;;
34353;SDS011;20618;0.000;0.000;2023-11-21T04:08:26;5.13;;;2.10;;
34353;SDS011;20618;0.000;0.000;2023-11-21T04:10:52;6.35;;;1.70;;
34353;SDS011;20618;0.000;0.000;2023-11-21T04:13:18;5.32;;;1.83;;
34353;SDS011;20618;0.000;0.000;2023-11-21T04:15:44;3.92;;;1.90;;
34353;SDS011;20618;0.000;0.000;2023-11-21T04:18:11;6.85;;;2.22;;
34353;SDS011;20618;0.000;0.000;2023-11-21T04:20:37;6.82;;;1.88;;
34353;SDS011;20618;0.000;0.000;2023-11-21T04:23:03;4.18;;;1.80;;
34353;SDS011;20618;0.000;0.000;2023-11-21T04:25:29;5.60;;;1.98;;
34353;SDS011;20618;0.000;0.000;2023-11-21T04:27:55;4.22;;;1.90;;
34353;SDS011;20618;0.000;0.000;2023-11-21T04:30:21;7.03;;;2.15;;
34353;SDS011;20618;0.000;0.000;2023-11-21T04:32:48;5.68;;;2.45;;
34353;SDS011;20618;0.000;0.000;2023-11-21T04:35:15;4.75;;;1.85;;
34353;SDS011;20618;0.000;0.000;2023-11-21T04:37:42;6.07;;;1.73;;
34353;SDS011;20618;0.000;0.000;2023-11-21T04:40:08;5.38;;;1.73;;
34353;SDS011;20618;0.000;0.000;2023-11-21T04:42:35;4.40;;;1.70;;
34353;SDS011;20618;0.000;0.000;2023-11-21T04:45:02;5.50;;;1.77;;
34353;SDS011;20618;0.000;0.000;2023-11-21T04:47:32;6.32;;;2.03;;
34353;SDS011;20618;0.000;0.000;2023-11-21T04:49:58;6.75;;;1.88;;
34353;SDS011;20618;0.000;0.000;2023-11-21T04:52:25;5.25;;;2.03;;
34353;SDS011;20618;0.000;0.000;2023-11-21T04:54:51;4.75;;;1.85;;
34353;SDS011;20618;0.000;0.000;2023-11-21T04:57:19;4.07;;;1.80;;
34353;SDS011;20618;0.000;0.000;2023-11-21T04:59:47;4.13;;;1.95;;
34353;SDS011;20618;0.000;0.000;2023-11-21T05:02:13;4.63;;;1.70;;
34353;SDS011;20618;0.000;0.000;2023-11-21T05:04:39;3.95;;;1.60;;
34353;SDS011;20618;0.000;0.000;2023-11-21T05:07:08;3.63;;;1.65;;
34353;SDS011;20618;0.000;0.000;2023-11-21T05:09:34;5.63;;;1.70;;
34353;SDS011;20618;0.000;0.000;2023-11-21T05:12:01;4.03;;;1.70;;
34353;SDS011;20618;0.000;0.000;2023-11-21T05:14:27;4.72;;;1.80;;
34353;SDS011;20618;0.000;0.000;2023-11-21T05:16:53;5.35;;;1.83;;
34353;SDS011;20618;0.000;0.000;2023-11-21T05:19:20;5.53;;;1.77;;
34353;SDS011;20618;0.000;0.000;2023-11-21T05:21:47;3.40;;;1.58;;
34353;SDS011;20618;0.000;0.000;2023-11-21T05:24:14;4.05;;;1.75;;
34353;SDS011;20618;0.000;0.000;2023-11-21T05:26:40;4.75;;;1.50;;
34353;SDS011;20618;0.000;0.000;2023-11-21T05:29:06;4.15;;;2.05;;
34353;SDS011;20618;0.000;0.000;2023-11-21T05:31:33;3.85;;;1.60;;
34353;SDS011;20618;0.000;0.000;2023-11-21T05:33:59;5.45;;;1.60;;
34353;SDS011;20618;0.000;0.000;2023-11-21T05:36:26;3.15;;;1.50;;
34353;SDS011;20618;0.000;0.000;2023-11-21T05:38:52;5.85;;;1.80;;
34353;SDS011;20618;0.000;0.000;2023-11-21T05:41:18;5.68;;;1.77;;
34353;SDS011;20618;0.000;0.000;2023-11-21T05:43:44;5.38;;;1.80;;
34353;SDS011;20618;0.000;0.000;2023-11-21T05:46:10;7.05;;;1.85;;
34353;SDS011;20618;0.000;0.000;2023-11-21T05:48:36;4.13;;;1.67;;
34353;SDS011;20618;0.000;0.000;2023-11-21T05:51:04;5.95;;;1.90;;
34353;SDS011;20618;0.000;0.000;2023-11-21T05:53:30;5.70;;;1.67;;
34353;SDS011;20618;0.000;0.000;2023-11-21T05:55:56;3.10;;;1.40;;
34353;SDS011;20618;0.000;0.000;2023-11-21T05:58:22;5.60;;;1.58;;
34353;SDS011;20618;0.000;0.000;2023-11-21T06:00:49;5.53;;;1.42;;
34353;SDS011;20618;0.000;0.000;2023-11-21T06:03:15;4.43;;;1.52;;
34353;SDS011;20618;0.000;0.000;2023-11-21T06:05:42;4.25;;;1.60;;
34353;SDS011;20618;0.000;0.000;2023-11-21T06:08:08;5.15;;;1.63;;
34353;SDS011;20618;0.000;0.000;2023-11-21T06:10:35;4.20;;;1.65;;
34353;SDS011;20618;0.000;0.000;2023-11-21T06:13:01;3.50;;;1.48;;
34353;SDS011;20618;0.000;0.000;2023-11-21T06:15:29;6.95;;;1.70;;
34353;SDS011;20618;0.000;0.000;2023-11-21T06:17:55;5.53;;;1.55;;
34353;SDS011;20618;0.000;0.000;2023-11-21T06:20:21;4.45;;;1.48;;
34353;SDS011;20618;0.000;0.000;2023-11-21T06:22:48;4.05;;;1.20;;
34353;SDS011;20618;0.000;0.000;2023-11-21T06:25:15;4.55;;;1.60;;
34353;SDS011;20618;0.000;0.000;2023-11-21T06:27:46;2.83;;;1.45;;
34353;SDS011;20618;0.000;0.000;2023-11-21T06:32:39;4.63;;;1.50;;
34353;SDS011;20618;0.000;0.000;2023-11-21T06:35:05;4.15;;;1.52;;
34353;SDS011;20618;0.000;0.000;2023-11-21T06:37:32;4.88;;;1.75;;
34353;SDS011;20618;0.000;0.000;2023-11-21T06:39:59;4.22;;;1.60;;
34353;SDS011;20618;0.000;0.000;2023-11-21T06:42:25;4.20;;;1.38;;
34353;SDS011;20618;0.000;0.000;2023-11-21T06:44:52;3.33;;;1.38;;
34353;SDS011;20618;0.000;0.000;2023-11-21T06:47:22;5.13;;;1.35;;
34353;SDS011;20618;0.000;0.000;2023-11-21T06:49:53;4.82;;;1.30;;
34353;SDS011;20618;0.000;0.000;2023-11-21T06:52:19;4.88;;;1.60;;
34353;SDS011;20618;0.000;0.000;2023-11-21T06:54:45;6.70;;;1.80;;
34353;SDS011;20618;0.000;0.000;2023-11-21T06:57:12;4.03;;;1.80;;
34353;SDS011;20618;0.000;0.000;2023-11-21T06:59:38;4.47;;;1.50;;
34353;SDS011;20618;0.000;0.000;2023-11-21T07:02:04;5.93;;;1.80;;
34353;SDS011;20618;0.000;0.000;2023-11-21T07:04:32;6.47;;;1.80;;
34353;SDS011;20618;0.000;0.000;2023-11-21T07:06:58;6.30;;;1.48;;
34353;SDS011;20618;0.000;0.000;2023-11-21T07:09:24;6.53;;;1.70;;
34353;SDS011;20618;0.000;0.000;2023-11-21T07:11:51;8.95;;;1.63;;
34353;SDS011;20618;0.000;0.000;2023-11-21T07:14:17;11.13;;;1.98;;
34353;SDS011;20618;0.000;0.000;2023-11-21T07:16:45;9.55;;;2.13;;
34353;SDS011;20618;0.000;0.000;2023-11-21T07:19:11;13.50;;;2.28;;
34353;SDS011;20618;0.000;0.000;2023-11-21T07:21:37;5.45;;;1.80;;
34353;SDS011;20618;0.000;0.000;2023-11-21T07:24:07;8.93;;;2.15;;
34353;SDS011;20618;0.000;0.000;2023-11-21T07:26:34;9.85;;;2.25;;
34353;SDS011;20618;0.000;0.000;2023-11-21T07:29:00;6.68;;;1.80;;
34353;SDS011;20618;0.000;0.000;2023-11-21T07:31:27;6.32;;;1.88;;
34353;SDS011;20618;0.000;0.000;2023-11-21T07:33:54;9.30;;;1.90;;
34353;SDS011;20618;0.000;0.000;2023-11-21T07:36:23;4.40;;;1.73;;
34353;SDS011;20618;0.000;0.000;2023-11-21T07:38:49;7.90;;;1.83;;
34353;SDS011;20618;0.000;0.000;2023-11-21T07:41:16;8.10;;;2.35;;
34353;SDS011;20618;0.000;0.000;2023-11-21T07:43:43;4.63;;;1.70;;
34353;SDS011;20618;0.000;0.000;2023-11-21T07:46:09;7.03;;;1.58;;
34353;SDS011;20618;0.000;0.000;2023-11-21T07:48:37;10.10;;;1.90;;
34353;SDS011;20618;0.000;0.000;2023-11-21T07:51:03;9.55;;;2.30;;
34353;SDS011;20618;0.000;0.000;2023-11-21T07:53:30;8.05;;;2.00;;
34353;SDS011;20618;0.000;0.000;2023-11-21T07:55:56;9.30;;;1.70;;
34353;SDS011;20618;0.000;0.000;2023-11-21T07:58:22;9.20;;;1.85;;
34353;SDS011;20618;0.000;0.000;2023-11-21T08:00:49;9.98;;;2.30;;
34353;SDS011;20618;0.000;0.000;2023-11-21T08:03:15;8.23;;;2.10;;
34353;SDS011;20618;0.000;0.000;2023-11-21T08:05:42;5.40;;;2.03;;
34353;SDS011;20618;0.000;0.000;2023-11-21T08:08:08;7.15;;;1.63;;
34353;SDS011;20618;0.000;0.000;2023-11-21T08:10:34;11.43;;;2.17;;
34353;SDS011;20618;0.000;0.000;2023-11-21T08:13:01;5.35;;;1.92;;
34353;SDS011;20618;0.000;0.000;2023-11-21T08:15:27;9.57;;;2.15;;
34353;SDS011;20618;0.000;0.000;2023-11-21T08:17:54;10.98;;;2.58;;
34353;SDS011;20618;0.000;0.000;2023-11-21T08:20:20;15.88;;;2.00;;
34353;SDS011;20618;0.000;0.000;2023-11-21T08:22:47;14.68;;;2.80;;
34353;SDS011;20618;0.000;0.000;2023-11-21T08:25:14;12.43;;;2.42;;
34353;SDS011;20618;0.000;0.000;2023-11-21T08:27:40;9.13;;;2.22;;
34353;SDS011;20618;0.000;0.000;2023-11-21T08:30:06;11.13;;;1.77;;
34353;SDS011;20618;0.000;0.000;2023-11-21T08:32:33;14.02;;;2.28;;
34353;SDS011;20618;0.000;0.000;2023-11-21T08:34:59;8.32;;;2.05;;
34353;SDS011;20618;0.000;0.000;2023-11-21T08:37:26;15.73;;;2.42;;
34353;SDS011;20618;0.000;0.000;2023-11-21T08:39:54;14.18;;;2.33;;
34353;SDS011;20618;0.000;0.000;2023-11-21T08:42:20;29.65;;;3.05;;
34353;SDS011;20618;0.000;0.000;2023-11-21T08:44:48;25.38;;;3.20;;
34353;SDS011;20618;0.000;0.000;2023-11-21T08:47:14;15.05;;;2.75;;
34353;SDS011;20618;0.000;0.000;2023-11-21T08:49:40;11.32;;;2.17;;
34353;SDS011;20618;0.000;0.000;2023-11-21T08:52:06;16.05;;;2.80;;
34353;SDS011;20618;0.000;0.000;2023-11-21T08:54:32;16.17;;;2.55;;
34353;SDS011;20618;0.000;0.000;2023-11-21T08:56:59;10.75;;;2.30;;
34353;SDS011;20618;0.000;0.000;2023-11-21T08:59:25;12.25;;;2.22;;
34353;SDS011;20618;0.000;0.000;2023-11-21T09:01:52;14.13;;;2.63;;
34353;SDS011;20618;0.000;0.000;2023-11-21T09:04:18;17.02;;;2.38;;
34353;SDS011;20618;0.000;0.000;2023-11-21T09:06:44;11.23;;;2.40;;
34353;SDS011;20618;0.000;0.000;2023-11-21T09:09:10;14.23;;;2.33;;
34353;SDS011;20618;0.000;0.000;2023-11-21T09:11:36;14.73;;;2.35;;
34353;SDS011;20618;0.000;0.000;2023-11-21T09:14:03;11.07;;;2.60;;
34353;SDS011;20618;0.000;0.000;2023-11-21T09:16:29;18.63;;;2.80;;
34353;SDS011;20618;0.000;0.000;2023-11-21T09:18:56;21.27;;;2.65;;
34353;SDS011;20618;0.000;0.000;2023-11-21T09:21:23;18.40;;;2.33;;
34353;SDS011;20618;0.000;0.000;2023-11-21T09:23:50;15.68;;;3.40;;
34353;SDS011;20618;0.000;0.000;2023-11-21T09:26:18;19.30;;;3.10;;
34353;SDS011;20618;0.000;0.000;2023-11-21T09:28:44;21.00;;;2.20;;
34353;SDS011;20618;0.000;0.000;2023-11-21T09:31:13;17.42;;;2.45;;
34353;SDS011;20618;0.000;0.000;2023-11-21T09:33:41;20.08;;;2.47;;
34353;SDS011;20618;0.000;0.000;2023-11-21T09:36:11;13.30;;;2.33;;
34353;SDS011;20618;0.000;0.000;2023-11-21T09:38:38;15.25;;;2.50;;
34353;SDS011;20618;0.000;0.000;2023-11-21T09:41:05;13.80;;;2.20;;
34353;SDS011;20618;0.000;0.000;2023-11-21T09:43:34;13.55;;;2.47;;
34353;SDS011;20618;0.000;0.000;2023-11-21T09:46:01;18.50;;;2.85;;
34353;SDS011;20618;0.000;0.000;2023-11-21T09:48:29;19.27;;;2.38;;
34353;SDS011;20618;0.000;0.000;2023-11-21T09:50:56;15.60;;;2.72;;
34353;SDS011;20618;0.000;0.000;2023-11-21T09:53:22;17.60;;;2.80;;
34353;SDS011;20618;0.000;0.000;2023-11-21T09:55:50;20.60;;;3.00;;
34353;SDS011;20618;0.000;0.000;2023-11-21T09:58:17;16.27;;;2.80;;
34353;SDS011;20618;0.000;0.000;2023-11-21T10:00:45;25.38;;;3.25;;
34353;SDS011;20618;0.000;0.000;2023-11-21T10:03:12;21.27;;;2.88;;
34353;SDS011;20618;0.000;0.000;2023-11-21T10:05:39;19.67;;;2.53;;
34353;SDS011;20618;0.000;0.000;2023-11-21T10:08:09;18.70;;;2.45;;
34353;SDS011;20618;0.000;0.000;2023-11-21T10:10:36;18.35;;;1.98;;
34353;SDS011;20618;0.000;0.000;2023-11-21T10:13:03;16.15;;;2.28;;
34353;SDS011;20618;0.000;0.000;2023-11-21T10:15:33;11.68;;;2.35;;
34353;SDS011;20618;0.000;0.000;2023-11-21T10:18:00;16.48;;;2.10;;
34353;SDS011;20618;0.000;0.000;2023-11-21T10:20:28;11.70;;;2.53;;
34353;SDS011;20618;0.000;0.000;2023-11-21T10:22:54;15.52;;;3.08;;
34353;SDS011;20618;0.000;0.000;2023-11-21T10:25:22;17.83;;;2.63;;
34353;SDS011;20618;0.000;0.000;2023-11-21T10:27:49;14.50;;;1.92;;
34353;SDS011;20618;0.000;0.000;2023-11-21T10:30:17;18.55;;;2.80;;
34353;SDS011;20618;0.000;0.000;2023-11-21T10:32:43;17.08;;;2.70;;
34353;SDS011;20618;0.000;0.000;2023-11-21T10:35:09;18.92;;;3.05;;
34353;SDS011;20618;0.000;0.000;2023-11-21T10:37:36;14.25;;;2.35;;
34353;SDS011;20618;0.000;0.000;2023-11-21T10:40:06;21.15;;;2.95;;
34353;SDS011;20618;0.000;0.000;2023-11-21T10:42:33;16.35;;;2.55;;
34353;SDS011;20618;0.000;0.000;2023-11-21T10:44:59;18.08;;;2.53;;
34353;SDS011;20618;0.000;0.000;2023-11-21T10:47:26;18.73;;;2.72;;
34353;SDS011;20618;0.000;0.000;2023-11-21T10:49:52;28.73;;;3.28;;
34353;SDS011;20618;0.000;0.000;2023-11-21T10:52:19;13.75;;;2.20;;
34353;SDS011;20618;0.000;0.000;2023-11-21T10:54:45;26.02;;;3.70;;
34353;SDS011;20618;0.000;0.000;2023-11-21T10:57:13;21.73;;;2.83;;
34353;SDS011;20618;0.000;0.000;2023-11-21T10:59:42;17.33;;;3.15;;
34353;SDS011;20618;0.000;0.000;2023-11-21T11:02:18;22.70;;;2.90;;
34353;SDS011;20618;0.000;0.000;2023-11-21T11:04:48;23.42;;;2.80;;
34353;SDS011;20618;0.000;0.000;2023-11-21T11:07:15;20.85;;;3.25;;
34353;SDS011;20618;0.000;0.000;2023-11-21T11:09:42;21.23;;;3.03;;
34353;SDS011;20618;0.000;0.000;2023-11-21T11:12:10;17.52;;;2.78;;
34353;SDS011;20618;0.000;0.000;2023-11-21T11:14:36;16.27;;;2.75;;
34353;SDS011;20618;0.000;0.000;2023-11-21T11:17:06;26.63;;;3.30;;
34353;SDS011;20618;0.000;0.000;2023-11-21T11:19:34;19.55;;;2.75;;
34353;SDS011;20618;0.000;0.000;2023-11-21T11:24:52;20.58;;;2.88;;
34353;SDS011;20618;0.000;0.000;2023-11-21T11:27:40;18.92;;;3.05;;
34353;SDS011;20618;0.000;0.000;2023-11-21T11:32:45;16.92;;;3.10;;
34353;SDS011;20618;0.000;0.000;2023-11-21T11:35:17;21.10;;;2.90;;
34353;SDS011;20618;0.000;0.000;2023-11-21T11:37:45;10.93;;;2.47;;
34353;SDS011;20618;0.000;0.000;2023-11-21T11:40:12;25.52;;;2.65;;
34353;SDS011;20618;0.000;0.000;2023-11-21T11:42:38;20.00;;;3.10;;
34353;SDS011;20618;0.000;0.000;2023-11-21T11:45:17;27.88;;;2.90;;
34353;SDS011;20618;0.000;0.000;2023-11-21T11:50:12;20.20;;;2.45;;
34353;SDS011;20618;0.000;0.000;2023-11-21T11:52:42;22.83;;;2.83;;
34353;SDS011;20618;0.000;0.000;2023-11-21T11:55:12;24.95;;;2.80;;
34353;SDS011;20618;0.000;0.000;2023-11-21T11:57:39;15.57;;;2.58;;
34353;SDS011;20618;0.000;0.000;2023-11-21T12:02:36;21.50;;;2.75;;
34353;SDS011;20618;0.000;0.000;2023-11-21T12:05:11;22.65;;;3.15;;
34353;SDS011;20618;0.000;0.000;2023-11-21T12:08:00;21.85;;;2.95;;
34353;SDS011;20618;0.000;0.000;2023-11-21T12:10:29;16.48;;;2.63;;
34353;SDS011;20618;0.000;0.000;2023-11-21T12:12:56;25.25;;;3.67;;
34353;SDS011;20618;0.000;0.000;2023-11-21T12:15:23;20.73;;;3.00;;
34353;SDS011;20618;0.000;0.000;2023-11-21T12:17:50;25.63;;;3.30;;
34353;SDS011;20618;0.000;0.000;2023-11-21T12:20:21;18.75;;;2.78;;
34353;SDS011;20618;0.000;0.000;2023-11-21T12:22:48;16.88;;;2.85;;
34353;SDS011;20618;0.000;0.000;2023-11-21T12:25:18;19.38;;;3.38;;
34353;SDS011;20618;0.000;0.000;2023-11-21T12:27:48;26.13;;;2.95;;
34353;SDS011;20618;0.000;0.000;2023-11-21T12:30:15;31.98;;;4.28;;
34353;SDS011;20618;0.000;0.000;2023-11-21T12:32:47;27.35;;;4.57;;
34353;SDS011;20618;0.000;0.000;2023-11-21T12:35:14;26.77;;;4.07;;
34353;SDS011;20618;0.000;0.000;2023-11-21T12:37:41;22.65;;;2.90;;
34353;SDS011;20618;0.000;0.000;2023-11-21T12:40:08;20.90;;;3.50;;
34353;SDS011;20618;0.000;0.000;2023-11-21T12:42:43;22.25;;;3.22;;
34353;SDS011;20618;0.000;0.000;2023-11-21T12:47:43;30.87;;;3.87;;
34353;SDS011;20618;0.000;0.000;2023-11-21T12:50:14;35.13;;;4.38;;
34353;SDS011;20618;0.000;0.000;2023-11-21T12:52:41;31.45;;;4.05;;
34353;SDS011;20618;0.000;0.000;2023-11-21T12:55:09;33.40;;;4.50;;
34353;SDS011;20618;0.000;0.000;2023-11-21T12:57:43;38.00;;;4.80;;
34353;SDS011;20618;0.000;0.000;2023-11-21T13:00:10;25.05;;;3.65;;
34353;SDS011;20618;0.000;0.000;2023-11-21T13:02:41;27.85;;;4.05;;
34353;SDS011;20618;0.000;0.000;2023-11-21T13:05:10;19.45;;;3.17;;
34353;SDS011;20618;0.000;0.000;2023-11-21T13:07:46;15.77;;;3.20;;
34353;SDS011;20618;0.000;0.000;2023-11-21T13:10:13;22.73;;;3.28;;
34353;SDS011;20618;0.000;0.000;2023-11-21T13:12:43;32.17;;;3.50;;
34353;SDS011;20618;0.000;0.000;2023-11-21T13:15:13;30.52;;;3.88;;
34353;SDS011;20618;0.000;0.000;2023-11-21T13:17:45;21.92;;;3.38;;
34353;SDS011;20618;0.000;0.000;2023-11-21T13:20:12;26.15;;;4.20;;
34353;SDS011;20618;0.000;0.000;2023-11-21T13:22:50;65.53;;;8.77;;
34353;SDS011;20618;0.000;0.000;2023-11-21T13:25:22;34.47;;;5.47;;
34353;SDS011;20618;0.000;0.000;2023-11-21T13:27:48;27.60;;;4.47;;
34353;SDS011;20618;0.000;0.000;2023-11-21T13:30:15;32.72;;;4.70;;
34353;SDS011;20618;0.000;0.000;2023-11-21T13:32:43;25.65;;;3.75;;
34353;SDS011;20618;0.000;0.000;2023-11-21T13:35:11;39.67;;;4.53;;
34353;SDS011;20618;0.000;0.000;2023-11-21T13:37:51;28.13;;;3.85;;
34353;SDS011;20618;0.000;0.000;2023-11-21T13:40:21;34.20;;;3.78;;
34353;SDS011;20618;0.000;0.000;2023-11-21T13:42:52;27.42;;;3.80;;
34353;SDS011;20618;0.000;0.000;2023-11-21T13:45:19;36.65;;;4.15;;
34353;SDS011;20618;0.000;0.000;2023-11-21T13:47:47;22.65;;;3.13;;
34353;SDS011;20618;0.000;0.000;2023-11-21T13:50:16;26.98;;;3.78;;
34353;SDS011;20618;0.000;0.000;2023-11-21T13:52:47;24.58;;;3.25;;
34353;SDS011;20618;0.000;0.000;2023-11-21T13:55:14;23.73;;;3.55;;
34353;SDS011;20618;0.000;0.000;2023-11-21T13:57:41;25.10;;;3.22;;
34353;SDS011;20618;0.000;0.000;2023-11-21T14:00:14;25.83;;;3.65;;
34353;SDS011;20618;0.000;0.000;2023-11-21T14:03:00;19.20;;;3.35;;
34353;SDS011;20618;0.000;0.000;2023-11-21T14:05:30;21.10;;;3.47;;
34353;SDS011;20618;0.000;0.000;2023-11-21T14:07:59;31.63;;;3.85;;
34353;SDS011;20618;0.000;0.000;2023-11-21T14:10:32;16.75;;;3.00;;
34353;SDS011;20618;0.000;0.000;2023-11-21T14:13:09;15.65;;;3.13;;
34353;SDS011;20618;0.000;0.000;2023-11-21T14:15:41;19.93;;;3.60;;
34353;SDS011;20618;0.000;0.000;2023-11-21T14:18:10;18.75;;;3.58;;
34353;SDS011;20618;0.000;0.000;2023-11-21T14:20:39;27.58;;;3.38;;
34353;SDS011;20618;0.000;0.000;2023-11-21T14:23:07;15.55;;;3.35;;
34353;SDS011;20618;0.000;0.000;2023-11-21T14:25:34;21.55;;;3.45;;
34353;SDS011;20618;0.000;0.000;2023-11-21T14:28:02;27.48;;;3.92;;
34353;SDS011;20618;0.000;0.000;2023-11-21T14:30:29;23.55;;;3.28;;
34353;SDS011;20618;0.000;0.000;2023-11-21T14:32:58;23.60;;;3.50;;
34353;SDS011;20618;0.000;0.000;2023-11-21T14:35:24;25.38;;;3.92;;
34353;SDS011;20618;0.000;0.000;2023-11-21T14:37:51;30.02;;;3.20;;
34353;SDS011;20618;0.000;0.000;2023-11-21T14:40:18;21.23;;;4.00;;
34353;SDS011;20618;0.000;0.000;2023-11-21T14:42:49;25.48;;;3.20;;
34353;SDS011;20618;0.000;0.000;2023-11-21T14:45:18;22.73;;;3.80;;
34353;SDS011;20618;0.000;0.000;2023-11-21T14:47:46;29.55;;;4.30;;
34353;SDS011;20618;0.000;0.000;2023-11-21T14:50:30;26.10;;;3.90;;
34353;SDS011;20618;0.000;0.000;2023-11-21T14:53:04;23.83;;;4.22;;
34353;SDS011;20618;0.000;0.000;2023-11-21T14:55:34;24.50;;;3.90;;
34353;SDS011;20618;0.000;0.000;2023-11-21T14:58:03;28.73;;;3.53;;
34353;SDS011;20618;0.000;0.000;2023-11-21T15:00:29;21.33;;;3.55;;
34353;SDS011;20618;0.000;0.000;2023-11-21T15:02:58;24.05;;;4.05;;
34353;SDS011;20618;0.000;0.000;2023-11-21T15:05:25;26.90;;;3.70;;
34353;SDS011;20618;0.000;0.000;2023-11-21T15:07:52;27.00;;;4.10;;
34353;SDS011;20618;0.000;0.000;2023-11-21T15:10:21;27.70;;;4.07;;
34353;SDS011;20618;0.000;0.000;2023-11-21T15:12:56;23.70;;;3.72;;